sensor_id;sensor_type;location;lat;lon;timestamp;temperature;humidity
20479;DHT22;10398;52.490;13.434;2023-11-21T00:01:52;10.80;99.90
20479;DHT22;10398;52.490;13.434;2023-11-21T00:04:18;10.90;99.90
20479;DHT22;10398;52.490;13.434;2023-11-21T00:06:43;10.80;99.90
20479;DHT22;10398;52.490;13.434;2023-11-21T00:09:14;10.70;99.90
20479;DHT22;10398;52.490;13.434;2023-11-21T00:11:41;10.70;99.90
20479;DHT22;10398;52.490;13.434;2023-11-21T00:14:07;10.60;99.90
20479;DHT22;10398;52.490;13.434;2023-11-21T00:16:33;10.60;99.90
20479;DHT22;10398;52.490;13.434;2023-11-21T00:18:59;10.60;99.90
20479;DHT22;10398;52.490;13.434;2023-11-21T00:21:25;10.60;99.90
20479;DHT22;10398;52.490;13.434;2023-11-21T00:23:51;10.60;99.90
20479;DHT22;10398;52.490;13.434;2023-11-21T00:26:16;10.60;99.90
20479;DHT22;10398;52.490;13.434;2023-11-21T00:28:42;10.60;99.90
20479;DHT22;10398;52.490;13.434;2023-11-21T00:31:08;10.60;99.90
20479;DHT22;10398;52.490;13.434;2023-11-21T00:33:33;10.60;99.90
20479;DHT22;10398;52.490;13.434;2023-11-21T00:35:59;10.60;99.90
20479;DHT22;10398;52.490;13.434;2023-11-21T00:38:26;10.60;99.90
20479;DHT22;10398;52.490;13.434;2023-11-21T00:40:53;10.60;99.90
20479;DHT22;10398;52.490;13.434;2023-11-21T00:43:22;10.60;99.90
20479;DHT22;10398;52.490;13.434;2023-11-21T00:45:48;10.50;99.90
20479;DHT22;10398;52.490;13.434;2023-11-21T00:48:14;10.40;99.90
20479;DHT22;10398;52.490;13.434;2023-11-21T00:50:40;10.30;99.90
20479;DHT22;10398;52.490;13.434;2023-11-21T00:53:06;10.20;99.90
20479;DHT22;10398;52.490;13.434;2023-11-21T00:55:33;10.20;99.90
20479;DHT22;10398;52.490;13.434;2023-11-21T00:58:00;10.10;99.90
20479;DHT22;10398;52.490;13.434;2023-11-21T01:00:28;10.10;99.90
20479;DHT22;10398;52.490;13.434;2023-11-21T01:02:54;10.10;99.90
20479;DHT22;10398;52.490;13.434;2023-11-21T01:05:19;10.10;99.90
20479;DHT22;10398;52.490;13.434;2023-11-21T01:07:45;10.10;99.90
20479;DHT22;10398;52.490;13.434;2023-11-21T01:10:11;10.10;99.90
20479;DHT22;10398;52.490;13.434;2023-11-21T01:12:38;10.10;99.90
20479;DHT22;10398;52.490;13.434;2023-11-21T01:15:05;10.00;99.90
20479;DHT22;10398;52.490;13.434;2023-11-21T01:17:33;9.90;99.90
20479;DHT22;10398;52.490;13.434;2023-11-21T01:20:00;9.80;99.90
20479;DHT22;10398;52.490;13.434;2023-11-21T01:22:26;9.90;99.90
20479;DHT22;10398;52.490;13.434;2023-11-21T01:24:53;9.90;99.90
20479;DHT22;10398;52.490;13.434;2023-11-21T01:27:18;9.80;99.90
20479;DHT22;10398;52.490;13.434;2023-11-21T01:29:44;9.80;99.90
20479;DHT22;10398;52.490;13.434;2023-11-21T01:32:10;9.80;99.90
20479;DHT22;10398;52.490;13.434;2023-11-21T01:47:14;9.70;99.90
20479;DHT22;10398;52.490;13.434;2023-11-21T01:49:43;9.70;99.90
20479;DHT22;10398;52.490;13.434;2023-11-21T01:52:09;9.60;99.90
20479;DHT22;10398;52.490;13.434;2023-11-21T01:54:37;9.50;99.90
20479;DHT22;10398;52.490;13.434;2023-11-21T01:57:04;9.60;99.90
20479;DHT22;10398;52.490;13.434;2023-11-21T01:59:37;9.50;99.90
20479;DHT22;10398;52.490;13.434;2023-11-21T02:02:04;9.60;99.90
20479;DHT22;10398;52.490;13.434;2023-11-21T02:04:34;9.60;99.90
20479;DHT22;10398;52.490;13.434;2023-11-21T02:07:00;9.60;99.90
20479;DHT22;10398;52.490;13.434;2023-11-21T02:09:27;9.50;99.90
20479;DHT22;10398;52.490;13.434;2023-11-21T02:11:56;9.40;99.90
20479;DHT22;10398;52.490;13.434;2023-11-21T02:14:21;9.50;99.90
20479;DHT22;10398;52.490;13.434;2023-11-21T02:16:50;9.50;99.90
20479;DHT22;10398;52.490;13.434;2023-11-21T02:19:18;9.50;99.90
20479;DHT22;10398;52.490;13.434;2023-11-21T02:21:56;9.60;99.90
20479;DHT22;10398;52.490;13.434;2023-11-21T02:24:25;9.50;99.90
20479;DHT22;10398;52.490;13.434;2023-11-21T02:26:50;9.50;99.90
20479;DHT22;10398;52.490;13.434;2023-11-21T02:29:17;9.60;99.90
20479;DHT22;10398;52.490;13.434;2023-11-21T02:31:46;9.60;99.90
20479;DHT22;10398;52.490;13.434;2023-11-21T02:34:15;9.50;99.90
20479;DHT22;10398;52.490;13.434;2023-11-21T02:36:42;9.50;99.90
20479;DHT22;10398;52.490;13.434;2023-11-21T02:39:08;9.50;99.90
20479;DHT22;10398;52.490;13.434;2023-11-21T02:41:34;9.50;99.90
20479;DHT22;10398;52.490;13.434;2023-11-21T02:44:00;9.50;99.90
20479;DHT22;10398;52.490;13.434;2023-11-21T02:46:26;9.40;99.90
20479;DHT22;10398;52.490;13.434;2023-11-21T02:48:51;9.40;99.90
20479;DHT22;10398;52.490;13.434;2023-11-21T02:51:19;9.30;99.90
20479;DHT22;10398;52.490;13.434;2023-11-21T02:53:45;9.20;99.90
20479;DHT22;10398;52.490;13.434;2023-11-21T02:56:12;9.30;99.90
20479;DHT22;10398;52.490;13.434;2023-11-21T02:58:41;9.40;99.90
20479;DHT22;10398;52.490;13.434;2023-11-21T03:01:07;9.30;99.90
20479;DHT22;10398;52.490;13.434;2023-11-21T03:03:32;9.20;99.90
20479;DHT22;10398;52.490;13.434;2023-11-21T03:05:58;9.10;99.90
20479;DHT22;10398;52.490;13.434;2023-11-21T03:08:23;9.10;99.90
20479;DHT22;10398;52.490;13.434;2023-11-21T03:10:49;9.10;99.90
20479;DHT22;10398;52.490;13.434;2023-11-21T03:13:15;9.10;99.90
20479;DHT22;10398;52.490;13.434;2023-11-21T03:15:40;9.10;99.90
20479;DHT22;10398;52.490;13.434;2023-11-21T03:18:06;9.20;99.90
20479;DHT22;10398;52.490;13.434;2023-11-21T03:20:31;9.10;99.90
20479;DHT22;10398;52.490;13.434;2023-11-21T03:22:57;9.10;99.90
20479;DHT22;10398;52.490;13.434;2023-11-21T03:25:25;9.00;99.90
20479;DHT22;10398;52.490;13.434;2023-11-21T03:27:50;9.10;99.90
20479;DHT22;10398;52.490;13.434;2023-11-21T03:30:16;9.10;99.90
20479;DHT22;10398;52.490;13.434;2023-11-21T03:32:42;9.10;99.90
20479;DHT22;10398;52.490;13.434;2023-11-21T03:35:07;9.10;99.90
20479;DHT22;10398;52.490;13.434;2023-11-21T03:37:33;9.10;99.90
20479;DHT22;10398;52.490;13.434;2023-11-21T03:39:59;9.10;99.90
20479;DHT22;10398;52.490;13.434;2023-11-21T03:42:25;9.10;99.90
20479;DHT22;10398;52.490;13.434;2023-11-21T03:44:53;9.00;99.90
20479;DHT22;10398;52.490;13.434;2023-11-21T03:47:19;9.00;99.90
20479;DHT22;10398;52.490;13.434;2023-11-21T03:49:45;9.00;99.90
20479;DHT22;10398;52.490;13.434;2023-11-21T03:52:11;9.10;99.90
20479;DHT22;10398;52.490;13.434;2023-11-21T03:54:37;9.10;99.90
20479;DHT22;10398;52.490;13.434;2023-11-21T03:57:03;9.10;99.90
20479;DHT22;10398;52.490;13.434;2023-11-21T03:59:29;9.00;99.90
20479;DHT22;10398;52.490;13.434;2023-11-21T04:01:57;9.10;99.90
20479;DHT22;10398;52.490;13.434;2023-11-21T04:04:23;9.20;99.90
20479;DHT22;10398;52.490;13.434;2023-11-21T04:06:49;9.10;99.90
20479;DHT22;10398;52.490;13.434;2023-11-21T04:09:14;9.10;99.90
20479;DHT22;10398;52.490;13.434;2023-11-21T04:11:40;9.00;99.90
20479;DHT22;10398;52.490;13.434;2023-11-21T04:14:05;9.20;99.90
20479;DHT22;10398;52.490;13.434;2023-11-21T04:16:31;9.20;99.90
20479;DHT22;10398;52.490;13.434;2023-11-21T04:18:57;9.20;99.90
20479;DHT22;10398;52.490;13.434;2023-11-21T04:21:22;9.10;99.90
20479;DHT22;10398;52.490;13.434;2023-11-21T04:23:49;9.10;99.90
20479;DHT22;10398;52.490;13.434;2023-11-21T04:26:15;9.10;99.90
20479;DHT22;10398;52.490;13.434;2023-11-21T04:28:41;9.20;99.90
20479;DHT22;10398;52.490;13.434;2023-11-21T04:31:06;9.20;99.90
20479;DHT22;10398;52.490;13.434;2023-11-21T04:33:32;9.20;99.90
20479;DHT22;10398;52.490;13.434;2023-11-21T04:35:58;9.10;99.90
20479;DHT22;10398;52.490;13.434;2023-11-21T04:38:24;9.10;99.90
20479;DHT22;10398;52.490;13.434;2023-11-21T04:40:50;9.10;99.90
20479;DHT22;10398;52.490;13.434;2023-11-21T04:43:15;9.00;99.90
20479;DHT22;10398;52.490;13.434;2023-11-21T04:45:41;8.90;99.90
20479;DHT22;10398;52.490;13.434;2023-11-21T04:48:07;8.90;99.90
20479;DHT22;10398;52.490;13.434;2023-11-21T04:50:34;8.90;99.90
20479;DHT22;10398;52.490;13.434;2023-11-21T04:52:59;8.90;99.90
20479;DHT22;10398;52.490;13.434;2023-11-21T04:55:25;8.90;99.90
20479;DHT22;10398;52.490;13.434;2023-11-21T04:57:54;8.90;99.90
20479;DHT22;10398;52.490;13.434;2023-11-21T05:00:20;8.80;99.90
20479;DHT22;10398;52.490;13.434;2023-11-21T05:02:46;8.80;99.90
20479;DHT22;10398;52.490;13.434;2023-11-21T05:05:12;8.90;99.90
20479;DHT22;10398;52.490;13.434;2023-11-21T05:07:39;8.90;99.90
20479;DHT22;10398;52.490;13.434;2023-11-21T05:10:08;8.80;99.90
20479;DHT22;10398;52.490;13.434;2023-11-21T05:12:35;8.90;99.90
20479;DHT22;10398;52.490;13.434;2023-11-21T05:15:05;8.90;99.90
20479;DHT22;10398;52.490;13.434;2023-11-21T05:17:33;8.90;99.90
20479;DHT22;10398;52.490;13.434;2023-11-21T05:20:00;8.80;99.90
20479;DHT22;10398;52.490;13.434;2023-11-21T05:22:29;8.90;99.90
20479;DHT22;10398;52.490;13.434;2023-11-21T05:24:54;8.90;99.90
20479;DHT22;10398;52.490;13.434;2023-11-21T05:27:20;8.80;99.90
20479;DHT22;10398;52.490;13.434;2023-11-21T05:29:45;8.70;99.90
20479;DHT22;10398;52.490;13.434;2023-11-21T05:32:11;8.70;99.90
20479;DHT22;10398;52.490;13.434;2023-11-21T05:34:37;8.70;99.90
20479;DHT22;10398;52.490;13.434;2023-11-21T05:37:02;8.70;99.90
20479;DHT22;10398;52.490;13.434;2023-11-21T05:39:28;8.80;99.90
20479;DHT22;10398;52.490;13.434;2023-11-21T05:41:53;8.80;99.90
20479;DHT22;10398;52.490;13.434;2023-11-21T05:44:19;8.80;99.90
20479;DHT22;10398;52.490;13.434;2023-11-21T05:46:45;8.80;99.90
20479;DHT22;10398;52.490;13.434;2023-11-21T05:49:10;8.80;99.90
20479;DHT22;10398;52.490;13.434;2023-11-21T05:51:37;8.80;99.90
20479;DHT22;10398;52.490;13.434;2023-11-21T05:54:03;8.80;99.90
20479;DHT22;10398;52.490;13.434;2023-11-21T05:56:29;8.80;99.90
20479;DHT22;10398;52.490;13.434;2023-11-21T05:58:55;8.90;99.90
20479;DHT22;10398;52.490;13.434;2023-11-21T06:01:20;8.90;99.90
20479;DHT22;10398;52.490;13.434;2023-11-21T06:03:46;8.80;99.90
20479;DHT22;10398;52.490;13.434;2023-11-21T06:06:11;8.70;99.90
20479;DHT22;10398;52.490;13.434;2023-11-21T06:08:37;8.70;99.90
20479;DHT22;10398;52.490;13.434;2023-11-21T06:11:03;8.80;99.90
20479;DHT22;10398;52.490;13.434;2023-11-21T06:13:28;8.70;99.90
20479;DHT22;10398;52.490;13.434;2023-11-21T06:15:54;8.80;99.90
20479;DHT22;10398;52.490;13.434;2023-11-21T06:18:20;8.70;99.90
20479;DHT22;10398;52.490;13.434;2023-11-21T06:20:46;8.80;99.90
20479;DHT22;10398;52.490;13.434;2023-11-21T06:23:12;8.80;99.90
20479;DHT22;10398;52.490;13.434;2023-11-21T06:25:37;8.80;99.90
20479;DHT22;10398;52.490;13.434;2023-11-21T06:28:03;8.80;99.90
20479;DHT22;10398;52.490;13.434;2023-11-21T06:30:29;8.80;99.90
20479;DHT22;10398;52.490;13.434;2023-11-21T06:32:55;8.80;99.90
20479;DHT22;10398;52.490;13.434;2023-11-21T06:35:21;8.90;99.90
20479;DHT22;10398;52.490;13.434;2023-11-21T06:37:47;8.90;99.90
20479;DHT22;10398;52.490;13.434;2023-11-21T06:40:13;8.80;99.90
20479;DHT22;10398;52.490;13.434;2023-11-21T06:42:43;8.70;99.90
20479;DHT22;10398;52.490;13.434;2023-11-21T06:45:10;8.80;99.90
20479;DHT22;10398;52.490;13.434;2023-11-21T06:47:37;8.70;99.90
20479;DHT22;10398;52.490;13.434;2023-11-21T06:50:04;8.70;99.90
20479;DHT22;10398;52.490;13.434;2023-11-21T06:52:29;8.70;99.90
20479;DHT22;10398;52.490;13.434;2023-11-21T06:54:55;8.70;99.90
20479;DHT22;10398;52.490;13.434;2023-11-21T06:57:23;8.70;99.90
20479;DHT22;10398;52.490;13.434;2023-11-21T06:59:48;8.70;99.90
20479;DHT22;10398;52.490;13.434;2023-11-21T07:02:16;8.70;99.90
20479;DHT22;10398;52.490;13.434;2023-11-21T07:04:46;8.70;99.90
20479;DHT22;10398;52.490;13.434;2023-11-21T07:07:12;8.70;99.90
20479;DHT22;10398;52.490;13.434;2023-11-21T07:09:38;8.70;99.90
20479;DHT22;10398;52.490;13.434;2023-11-21T07:12:04;8.70;99.90
20479;DHT22;10398;52.490;13.434;2023-11-21T07:14:35;8.60;99.90
20479;DHT22;10398;52.490;13.434;2023-11-21T07:17:02;8.60;99.90
20479;DHT22;10398;52.490;13.434;2023-11-21T07:19:28;8.60;99.90
20479;DHT22;10398;52.490;13.434;2023-11-21T07:21:54;8.60;99.90
20479;DHT22;10398;52.490;13.434;2023-11-21T07:24:21;8.70;99.90
20479;DHT22;10398;52.490;13.434;2023-11-21T07:26:46;8.70;99.90
20479;DHT22;10398;52.490;13.434;2023-11-21T07:29:13;8.70;99.90
20479;DHT22;10398;52.490;13.434;2023-11-21T07:31:39;8.70;99.90
20479;DHT22;10398;52.490;13.434;2023-11-21T07:34:05;8.70;99.90
20479;DHT22;10398;52.490;13.434;2023-11-21T07:36:31;8.60;99.90
20479;DHT22;10398;52.490;13.434;2023-11-21T07:38:57;8.70;99.90
20479;DHT22;10398;52.490;13.434;2023-11-21T07:41:22;8.70;99.90
20479;DHT22;10398;52.490;13.434;2023-11-21T07:43:48;8.70;99.90
20479;DHT22;10398;52.490;13.434;2023-11-21T07:46:14;8.60;99.90
20479;DHT22;10398;52.490;13.434;2023-11-21T07:48:41;8.60;99.90
20479;DHT22;10398;52.490;13.434;2023-11-21T07:51:07;8.70;99.90
20479;DHT22;10398;52.490;13.434;2023-11-21T07:53:34;8.60;99.90
20479;DHT22;10398;52.490;13.434;2023-11-21T07:56:06;8.60;99.90
20479;DHT22;10398;52.490;13.434;2023-11-21T07:58:36;8.50;99.90
20479;DHT22;10398;52.490;13.434;2023-11-21T08:01:02;8.50;99.90
20479;DHT22;10398;52.490;13.434;2023-11-21T08:03:28;8.50;99.90
20479;DHT22;10398;52.490;13.434;2023-11-21T08:05:57;8.40;99.90
20479;DHT22;10398;52.490;13.434;2023-11-21T08:08:23;8.50;99.90
20479;DHT22;10398;52.490;13.434;2023-11-21T08:10:50;8.40;99.90
20479;DHT22;10398;52.490;13.434;2023-11-21T08:13:25;8.50;99.90
20479;DHT22;10398;52.490;13.434;2023-11-21T08:15:54;8.40;99.90
20479;DHT22;10398;52.490;13.434;2023-11-21T08:18:20;8.40;99.90
20479;DHT22;10398;52.490;13.434;2023-11-21T08:20:46;8.70;99.90
20479;DHT22;10398;52.490;13.434;2023-11-21T08:23:17;9.30;99.90
20479;DHT22;10398;52.490;13.434;2023-11-21T08:25:44;9.40;99.90
20479;DHT22;10398;52.490;13.434;2023-11-21T08:28:09;9.60;99.90
20479;DHT22;10398;52.490;13.434;2023-11-21T08:30:35;9.30;99.90
20479;DHT22;10398;52.490;13.434;2023-11-21T08:33:02;9.00;99.90
20479;DHT22;10398;52.490;13.434;2023-11-21T08:35:29;8.90;99.90
20479;DHT22;10398;52.490;13.434;2023-11-21T08:37:55;8.70;99.90
20479;DHT22;10398;52.490;13.434;2023-11-21T08:40:21;8.60;99.90
20479;DHT22;10398;52.490;13.434;2023-11-21T08:42:47;8.50;99.90
20479;DHT22;10398;52.490;13.434;2023-11-21T08:45:14;8.50;99.90
20479;DHT22;10398;52.490;13.434;2023-11-21T08:47:40;8.60;99.90
20479;DHT22;10398;52.490;13.434;2023-11-21T08:50:06;8.60;99.90
20479;DHT22;10398;52.490;13.434;2023-11-21T08:52:33;8.60;99.90
20479;DHT22;10398;52.490;13.434;2023-11-21T08:54:59;8.50;99.90
20479;DHT22;10398;52.490;13.434;2023-11-21T08:57:28;8.50;99.90
20479;DHT22;10398;52.490;13.434;2023-11-21T08:59:53;8.40;99.90
20479;DHT22;10398;52.490;13.434;2023-11-21T09:02:26;8.40;99.90
20479;DHT22;10398;52.490;13.434;2023-11-21T09:04:52;8.40;99.90
20479;DHT22;10398;52.490;13.434;2023-11-21T09:07:18;8.30;99.90
20479;DHT22;10398;52.490;13.434;2023-11-21T09:09:46;8.20;99.90
20479;DHT22;10398;52.490;13.434;2023-11-21T09:12:12;8.10;99.90
20479;DHT22;10398;52.490;13.434;2023-11-21T09:14:38;8.20;99.90
20479;DHT22;10398;52.490;13.434;2023-11-21T09:17:05;8.10;99.90
20479;DHT22;10398;52.490;13.434;2023-11-21T09:19:36;8.10;99.90
20479;DHT22;10398;52.490;13.434;2023-11-21T09:22:02;8.10;99.90
20479;DHT22;10398;52.490;13.434;2023-11-21T09:24:28;8.20;99.90
20479;DHT22;10398;52.490;13.434;2023-11-21T09:26:53;8.20;99.90
20479;DHT22;10398;52.490;13.434;2023-11-21T09:29:19;8.20;99.90
20479;DHT22;10398;52.490;13.434;2023-11-21T09:31:45;8.20;99.90
20479;DHT22;10398;52.490;13.434;2023-11-21T09:34:10;8.10;99.90
20479;DHT22;10398;52.490;13.434;2023-11-21T09:36:37;8.10;99.90
20479;DHT22;10398;52.490;13.434;2023-11-21T09:39:04;7.90;99.90
20479;DHT22;10398;52.490;13.434;2023-11-21T09:41:59;7.90;99.90
20479;DHT22;10398;52.490;13.434;2023-11-21T09:47:07;7.90;99.90
20479;DHT22;10398;52.490;13.434;2023-11-21T09:49:37;7.90;99.90
20479;DHT22;10398;52.490;13.434;2023-11-21T09:52:04;8.10;99.90
20479;DHT22;10398;52.490;13.434;2023-11-21T09:54:32;8.20;99.90
20479;DHT22;10398;52.490;13.434;2023-11-21T09:56:59;8.30;99.90
20479;DHT22;10398;52.490;13.434;2023-11-21T09:59:30;8.40;99.90
20479;DHT22;10398;52.490;13.434;2023-11-21T10:01:59;8.40;99.90
20479;DHT22;10398;52.490;13.434;2023-11-21T10:04:26;8.50;99.90
20479;DHT22;10398;52.490;13.434;2023-11-21T10:06:53;8.40;99.90
20479;DHT22;10398;52.490;13.434;2023-11-21T10:09:19;8.30;99.90
20479;DHT22;10398;52.490;13.434;2023-11-21T10:11:47;8.30;99.90
20479;DHT22;10398;52.490;13.434;2023-11-21T10:14:16;8.40;99.90
20479;DHT22;10398;52.490;13.434;2023-11-21T10:16:44;8.30;99.90
20479;DHT22;10398;52.490;13.434;2023-11-21T10:19:13;8.30;99.90
20479;DHT22;10398;52.490;13.434;2023-11-21T10:21:39;8.10;99.90
20479;DHT22;10398;52.490;13.434;2023-11-21T10:24:05;8.10;99.90
20479;DHT22;10398;52.490;13.434;2023-11-21T10:26:32;8.00;99.90
20479;DHT22;10398;52.490;13.434;2023-11-21T10:29:00;8.00;99.90
20479;DHT22;10398;52.490;13.434;2023-11-21T10:31:32;8.00;99.90
20479;DHT22;10398;52.490;13.434;2023-11-21T10:34:18;8.10;99.90
20479;DHT22;10398;52.490;13.434;2023-11-21T10:36:45;8.10;99.90
20479;DHT22;10398;52.490;13.434;2023-11-21T10:39:18;8.20;99.90
20479;DHT22;10398;52.490;13.434;2023-11-21T10:41:48;8.10;99.90
20479;DHT22;10398;52.490;13.434;2023-11-21T10:44:17;8.10;99.90
20479;DHT22;10398;52.490;13.434;2023-11-21T10:46:53;8.10;99.90
20479;DHT22;10398;52.490;13.434;2023-11-21T10:49:30;8.00;99.90
20479;DHT22;10398;52.490;13.434;2023-11-21T10:51:56;7.80;99.90
20479;DHT22;10398;52.490;13.434;2023-11-21T10:54:23;7.60;99.90
20479;DHT22;10398;52.490;13.434;2023-11-21T10:57:00;7.60;99.90
20479;DHT22;10398;52.490;13.434;2023-11-21T10:59:29;7.70;99.90
20479;DHT22;10398;52.490;13.434;2023-11-21T11:01:57;7.70;99.90
20479;DHT22;10398;52.490;13.434;2023-11-21T11:04:25;7.80;99.90
20479;DHT22;10398;52.490;13.434;2023-11-21T11:06:57;7.90;99.90
20479;DHT22;10398;52.490;13.434;2023-11-21T11:09:23;8.00;99.90
20479;DHT22;10398;52.490;13.434;2023-11-21T11:11:50;8.10;99.90
20479;DHT22;10398;52.490;13.434;2023-11-21T11:14:17;8.00;99.90
20479;DHT22;10398;52.490;13.434;2023-11-21T11:16:45;8.10;99.90
20479;DHT22;10398;52.490;13.434;2023-11-21T11:19:11;8.00;99.90
20479;DHT22;10398;52.490;13.434;2023-11-21T11:26:58;8.20;99.90
20479;DHT22;10398;52.490;13.434;2023-11-21T11:32:47;8.30;99.90
20479;DHT22;10398;52.490;13.434;2023-11-21T11:35:25;8.30;99.90
20479;DHT22;10398;52.490;13.434;2023-11-21T11:37:52;8.40;99.90
20479;DHT22;10398;52.490;13.434;2023-11-21T11:40:18;8.40;99.90
20479;DHT22;10398;52.490;13.434;2023-11-21T11:43:01;8.30;99.90
20479;DHT22;10398;52.490;13.434;2023-11-21T11:45:34;8.20;99.90
20479;DHT22;10398;52.490;13.434;2023-11-21T11:48:07;8.10;99.90
20479;DHT22;10398;52.490;13.434;2023-11-21T11:50:33;8.00;99.90
20479;DHT22;10398;52.490;13.434;2023-11-21T11:53:13;8.00;99.90
20479;DHT22;10398;52.490;13.434;2023-11-21T11:55:39;8.00;99.90
20479;DHT22;10398;52.490;13.434;2023-11-21T11:58:06;8.00;99.90
20479;DHT22;10398;52.490;13.434;2023-11-21T12:03:00;7.90;99.90
20479;DHT22;10398;52.490;13.434;2023-11-21T12:05:29;7.80;99.90
20479;DHT22;10398;52.490;13.434;2023-11-21T12:08:05;7.70;99.90
20479;DHT22;10398;52.490;13.434;2023-11-21T12:10:33;7.70;99.90
20479;DHT22;10398;52.490;13.434;2023-11-21T12:13:09;7.60;99.90
20479;DHT22;10398;52.490;13.434;2023-11-21T12:15:36;7.70;99.90
20479;DHT22;10398;52.490;13.434;2023-11-21T12:18:02;7.70;99.90
20479;DHT22;10398;52.490;13.434;2023-11-21T12:20:29;7.70;99.90
20479;DHT22;10398;52.490;13.434;2023-11-21T12:22:57;7.60;99.90
20479;DHT22;10398;52.490;13.434;2023-11-21T12:25:28;7.60;99.90
20479;DHT22;10398;52.490;13.434;2023-11-21T12:27:55;7.50;99.90
20479;DHT22;10398;52.490;13.434;2023-11-21T12:30:23;7.50;99.90
20479;DHT22;10398;52.490;13.434;2023-11-21T12:32:53;7.50;99.90
20479;DHT22;10398;52.490;13.434;2023-11-21T12:35:21;7.60;99.90
20479;DHT22;10398;52.490;13.434;2023-11-21T12:37:47;7.50;99.90
20479;DHT22;10398;52.490;13.434;2023-11-21T12:40:15;7.60;99.90
20479;DHT22;10398;52.490;13.434;2023-11-21T12:42:48;7.60;99.90
20479;DHT22;10398;52.490;13.434;2023-11-21T12:45:21;7.60;99.90
20479;DHT22;10398;52.490;13.434;2023-11-21T12:47:49;7.60;99.90
20479;DHT22;10398;52.490;13.434;2023-11-21T12:50:19;7.60;99.90
20479;DHT22;10398;52.490;13.434;2023-11-21T12:52:47;7.60;99.90
20479;DHT22;10398;52.490;13.434;2023-11-21T12:55:23;7.50;99.90
20479;DHT22;10398;52.490;13.434;2023-11-21T12:57:50;7.40;99.90
20479;DHT22;10398;52.490;13.434;2023-11-21T13:00:20;7.30;99.90
20479;DHT22;10398;52.490;13.434;2023-11-21T13:02:56;7.20;99.90
20479;DHT22;10398;52.490;13.434;2023-11-21T13:05:33;7.10;99.90
20479;DHT22;10398;52.490;13.434;2023-11-21T13:08:01;7.10;99.90
20479;DHT22;10398;52.490;13.434;2023-11-21T13:10:33;7.10;99.90
20479;DHT22;10398;52.490;13.434;2023-11-21T13:13:02;7.10;99.90
20479;DHT22;10398;52.490;13.434;2023-11-21T13:15:31;7.20;99.90
20479;DHT22;10398;52.490;13.434;2023-11-21T13:17:58;7.40;99.90
20479;DHT22;10398;52.490;13.434;2023-11-21T13:20:24;7.30;99.90
20479;DHT22;10398;52.490;13.434;2023-11-21T13:22:57;7.50;99.90
20479;DHT22;10398;52.490;13.434;2023-11-21T13:25:25;7.50;99.90
20479;DHT22;10398;52.490;13.434;2023-11-21T13:27:54;7.50;99.90
20479;DHT22;10398;52.490;13.434;2023-11-21T13:30:22;7.40;99.90
20479;DHT22;10398;52.490;13.434;2023-11-21T13:32:53;7.40;99.90
20479;DHT22;10398;52.490;13.434;2023-11-21T13:35:23;7.40;99.90
20479;DHT22;10398;52.490;13.434;2023-11-21T13:37:57;7.50;99.90
20479;DHT22;10398;52.490;13.434;2023-11-21T13:40:26;7.50;99.90
20479;DHT22;10398;52.490;13.434;2023-11-21T13:42:53;7.40;99.90
20479;DHT22;10398;52.490;13.434;2023-11-21T13:45:22;7.30;99.90
20479;DHT22;10398;52.490;13.434;2023-11-21T13:47:53;7.20;99.90
20479;DHT22;10398;52.490;13.434;2023-11-21T13:50:25;7.10;99.90
20479;DHT22;10398;52.490;13.434;2023-11-21T13:52:59;7.00;99.90
20479;DHT22;10398;52.490;13.434;2023-11-21T13:55:29;6.90;99.90
20479;DHT22;10398;52.490;13.434;2023-11-21T13:57:55;6.80;99.90
20479;DHT22;10398;52.490;13.434;2023-11-21T14:00:20;6.80;99.90
20479;DHT22;10398;52.490;13.434;2023-11-21T14:03:04;6.80;99.90
20479;DHT22;10398;52.490;13.434;2023-11-21T14:05:34;6.80;99.90
20479;DHT22;10398;52.490;13.434;2023-11-21T14:08:00;6.90;99.90
20479;DHT22;10398;52.490;13.434;2023-11-21T14:10:33;6.90;99.90
20479;DHT22;10398;52.490;13.434;2023-11-21T14:13:06;6.90;99.90
20479;DHT22;10398;52.490;13.434;2023-11-21T14:15:32;6.80;99.90
20479;DHT22;10398;52.490;13.434;2023-11-21T14:17:59;6.90;99.90
20479;DHT22;10398;52.490;13.434;2023-11-21T14:20:27;6.90;99.90
20479;DHT22;10398;52.490;13.434;2023-11-21T14:22:54;7.00;99.90
20479;DHT22;10398;52.490;13.434;2023-11-21T14:25:20;7.00;99.90
20479;DHT22;10398;52.490;13.434;2023-11-21T14:27:48;6.90;99.90
20479;DHT22;10398;52.490;13.434;2023-11-21T14:30:13;6.90;99.90
20479;DHT22;10398;52.490;13.434;2023-11-21T14:32:43;6.90;99.90
20479;DHT22;10398;52.490;13.434;2023-11-21T14:35:09;7.00;99.90
20479;DHT22;10398;52.490;13.434;2023-11-21T14:37:34;6.90;99.90
20479;DHT22;10398;52.490;13.434;2023-11-21T14:40:00;7.00;99.90
20479;DHT22;10398;52.490;13.434;2023-11-21T14:42:26;6.90;99.90
20479;DHT22;10398;52.490;13.434;2023-11-21T14:44:54;7.00;99.90
20479;DHT22;10398;52.490;13.434;2023-11-21T14:47:25;6.90;99.90
20479;DHT22;10398;52.490;13.434;2023-11-21T14:49:52;6.70;99.90
20479;DHT22;10398;52.490;13.434;2023-11-21T14:52:21;6.60;99.90
20479;DHT22;10398;52.490;13.434;2023-11-21T14:55:00;6.50;99.90
20479;DHT22;10398;52.490;13.434;2023-11-21T14:57:45;6.40;99.90
20479;DHT22;10398;52.490;13.434;2023-11-21T15:00:16;6.40;99.90
20479;DHT22;10398;52.490;13.434;2023-11-21T15:03:03;6.40;99.90
20479;DHT22;10398;52.490;13.434;2023-11-21T15:05:29;6.40;99.90
20479;DHT22;10398;52.490;13.434;2023-11-21T15:07:56;6.40;99.90
20479;DHT22;10398;52.490;13.434;2023-11-21T15:10:26;6.40;99.90
20479;DHT22;10398;52.490;13.434;2023-11-21T15:13:04;6.30;99.90
20479;DHT22;10398;52.490;13.434;2023-11-21T15:15:30;6.30;99.90
20479;DHT22;10398;52.490;13.434;2023-11-21T15:17:59;6.30;99.90
20479;DHT22;10398;52.490;13.434;2023-11-21T15:20:25;6.30;99.90
20479;DHT22;10398;52.490;13.434;2023-11-21T15:22:52;6.30;99.90
20479;DHT22;10398;52.490;13.434;2023-11-21T15:25:17;6.20;99.90
20479;DHT22;10398;52.490;13.434;2023-11-21T15:27:43;6.10;99.90
20479;DHT22;10398;52.490;13.434;2023-11-21T15:30:09;6.10;99.90
20479;DHT22;10398;52.490;13.434;2023-11-21T15:32:35;6.00;99.90
20479;DHT22;10398;52.490;13.434;2023-11-21T15:35:01;6.00;99.90
20479;DHT22;10398;52.490;13.434;2023-11-21T15:37:26;6.00;99.90
20479;DHT22;10398;52.490;13.434;2023-11-21T15:39:54;6.00;99.90
20479;DHT22;10398;52.490;13.434;2023-11-21T15:42:20;6.00;99.90
20479;DHT22;10398;52.490;13.434;2023-11-21T15:44:45;6.00;99.90
20479;DHT22;10398;52.490;13.434;2023-11-21T15:47:11;6.00;99.90
20479;DHT22;10398;52.490;13.434;2023-11-21T15:49:37;6.00;99.90
20479;DHT22;10398;52.490;13.434;2023-11-21T15:52:04;6.00;99.90
20479;DHT22;10398;52.490;13.434;2023-11-21T15:54:31;5.90;99.90
20479;DHT22;10398;52.490;13.434;2023-11-21T15:57:00;5.90;99.90
20479;DHT22;10398;52.490;13.434;2023-11-21T15:59:26;5.90;99.90